sensor_id;sensor_type;location;lat;lon;timestamp;temperature;humidity
64705;DHT22;51131;52.298;13.686;2022-12-16T00:01:26;15.10;49.80
64705;DHT22;51131;52.298;13.686;2022-12-16T00:03:53;15.00;49.50
64705;DHT22;51131;52.298;13.686;2022-12-16T00:06:21;14.70;48.70
64705;DHT22;51131;52.298;13.686;2022-12-16T00:08:49;15.00;49.10
64705;DHT22;51131;52.298;13.686;2022-12-16T00:11:17;15.00;49.10
64705;DHT22;51131;52.298;13.686;2022-12-16T00:13:45;15.30;50.40
64705;DHT22;51131;52.298;13.686;2022-12-16T00:16:13;15.00;49.60
64705;DHT22;51131;52.298;13.686;2022-12-16T00:18:40;15.00;49.40
64705;DHT22;51131;52.298;13.686;2022-12-16T00:21:07;14.80;48.40
64705;DHT22;51131;52.298;13.686;2022-12-16T00:23:34;15.00;48.90
64705;DHT22;51131;52.298;13.686;2022-12-16T00:26:01;15.00;48.50
64705;DHT22;51131;52.298;13.686;2022-12-16T00:28:28;15.40;49.50
64705;DHT22;51131;52.298;13.686;2022-12-16T00:30:56;14.50;48.40
64705;DHT22;51131;52.298;13.686;2022-12-16T00:33:23;15.00;48.30
64705;DHT22;51131;52.298;13.686;2022-12-16T00:35:51;15.00;48.30
64705;DHT22;51131;52.298;13.686;2022-12-16T00:38:19;14.80;48.30
64705;DHT22;51131;52.298;13.686;2022-12-16T00:40:45;14.90;49.50
64705;DHT22;51131;52.298;13.686;2022-12-16T00:43:12;15.00;49.70
64705;DHT22;51131;52.298;13.686;2022-12-16T00:45:38;14.90;47.50
64705;DHT22;51131;52.298;13.686;2022-12-16T00:48:05;15.70;48.50
64705;DHT22;51131;52.298;13.686;2022-12-16T00:50:33;15.80;49.00
64705;DHT22;51131;52.298;13.686;2022-12-16T00:53:00;15.30;48.90
64705;DHT22;51131;52.298;13.686;2022-12-16T00:55:27;14.90;47.80
64705;DHT22;51131;52.298;13.686;2022-12-16T00:57:53;14.90;48.00
64705;DHT22;51131;52.298;13.686;2022-12-16T01:00:20;14.20;46.80
64705;DHT22;51131;52.298;13.686;2022-12-16T01:02:48;14.90;47.90
64705;DHT22;51131;52.298;13.686;2022-12-16T01:05:16;14.90;47.90
64705;DHT22;51131;52.298;13.686;2022-12-16T01:07:44;14.90;49.50
64705;DHT22;51131;52.298;13.686;2022-12-16T01:10:11;14.90;46.90
64705;DHT22;51131;52.298;13.686;2022-12-16T01:12:38;15.00;46.60
64705;DHT22;51131;52.298;13.686;2022-12-16T01:15:06;14.90;47.00
64705;DHT22;51131;52.298;13.686;2022-12-16T01:17:33;14.90;47.50
64705;DHT22;51131;52.298;13.686;2022-12-16T01:20:00;15.10;48.20
64705;DHT22;51131;52.298;13.686;2022-12-16T01:22:28;14.90;46.90
64705;DHT22;51131;52.298;13.686;2022-12-16T01:24:55;14.90;45.90
64705;DHT22;51131;52.298;13.686;2022-12-16T01:27:22;14.90;46.80
64705;DHT22;51131;52.298;13.686;2022-12-16T01:29:49;15.40;47.50
64705;DHT22;51131;52.298;13.686;2022-12-16T01:32:15;14.90;46.60
64705;DHT22;51131;52.298;13.686;2022-12-16T01:34:42;14.90;46.00
64705;DHT22;51131;52.298;13.686;2022-12-16T01:37:16;14.90;45.90
64705;DHT22;51131;52.298;13.686;2022-12-16T01:39:42;15.60;47.10
64705;DHT22;51131;52.298;13.686;2022-12-16T01:42:13;14.90;47.00
64705;DHT22;51131;52.298;13.686;2022-12-16T01:44:41;14.90;46.70
64705;DHT22;51131;52.298;13.686;2022-12-16T01:47:08;14.90;45.40
64705;DHT22;51131;52.298;13.686;2022-12-16T01:49:41;15.10;45.80
64705;DHT22;51131;52.298;13.686;2022-12-16T01:52:10;14.90;46.30
64705;DHT22;51131;52.298;13.686;2022-12-16T01:54:50;14.90;47.10
64705;DHT22;51131;52.298;13.686;2022-12-16T01:57:21;14.90;46.40
64705;DHT22;51131;52.298;13.686;2022-12-16T01:59:50;15.60;45.80
64705;DHT22;51131;52.298;13.686;2022-12-16T02:02:18;14.90;45.20
64705;DHT22;51131;52.298;13.686;2022-12-16T02:04:44;14.80;45.70
64705;DHT22;51131;52.298;13.686;2022-12-16T02:07:51;15.70;47.60
64705;DHT22;51131;52.298;13.686;2022-12-16T02:10:20;14.90;45.30
64705;DHT22;51131;52.298;13.686;2022-12-16T02:12:55;14.90;45.10
64705;DHT22;51131;52.298;13.686;2022-12-16T02:15:45;14.90;45.50
64705;DHT22;51131;52.298;13.686;2022-12-16T02:28:42;14.90;45.60
64705;DHT22;51131;52.298;13.686;2022-12-16T02:31:57;14.90;46.20
64705;DHT22;51131;52.298;13.686;2022-12-16T02:34:09;14.90;44.60
64705;DHT22;51131;52.298;13.686;2022-12-16T02:36:41;14.80;44.30
64705;DHT22;51131;52.298;13.686;2022-12-16T02:44:09;14.80;45.80
64705;DHT22;51131;52.298;13.686;2022-12-16T02:46:40;14.80;44.10
64705;DHT22;51131;52.298;13.686;2022-12-16T02:49:08;14.80;44.60
64705;DHT22;51131;52.298;13.686;2022-12-16T02:51:54;14.70;44.00
64705;DHT22;51131;52.298;13.686;2022-12-16T02:54:21;14.80;45.40
64705;DHT22;51131;52.298;13.686;2022-12-16T02:59:33;14.80;43.30
64705;DHT22;51131;52.298;13.686;2022-12-16T03:02:11;14.80;43.40
64705;DHT22;51131;52.298;13.686;2022-12-16T03:07:12;14.80;45.70
64705;DHT22;51131;52.298;13.686;2022-12-16T03:09:39;15.90;45.50
64705;DHT22;51131;52.298;13.686;2022-12-16T03:12:09;15.40;43.60
64705;DHT22;51131;52.298;13.686;2022-12-16T03:14:36;15.60;44.50
64705;DHT22;51131;52.298;13.686;2022-12-16T03:17:04;14.80;44.00
64705;DHT22;51131;52.298;13.686;2022-12-16T03:19:32;14.80;46.00
64705;DHT22;51131;52.298;13.686;2022-12-16T03:22:01;15.70;44.00
64705;DHT22;51131;52.298;13.686;2022-12-16T03:24:30;15.00;43.90
64705;DHT22;51131;52.298;13.686;2022-12-16T03:27:11;14.80;44.20
64705;DHT22;51131;52.298;13.686;2022-12-16T03:32:11;14.80;45.30
64705;DHT22;51131;52.298;13.686;2022-12-16T03:37:09;14.80;43.30
64705;DHT22;51131;52.298;13.686;2022-12-16T03:39:38;14.80;43.90
64705;DHT22;51131;52.298;13.686;2022-12-16T03:42:07;15.00;44.60
64705;DHT22;51131;52.298;13.686;2022-12-16T03:44:34;14.90;45.70
64705;DHT22;51131;52.298;13.686;2022-12-16T03:47:01;14.90;45.70
64705;DHT22;51131;52.298;13.686;2022-12-16T03:49:28;14.90;45.20
64705;DHT22;51131;52.298;13.686;2022-12-16T03:51:54;15.00;44.80
64705;DHT22;51131;52.298;13.686;2022-12-16T03:54:21;15.00;44.50
64705;DHT22;51131;52.298;13.686;2022-12-16T03:56:49;15.70;44.40
64705;DHT22;51131;52.298;13.686;2022-12-16T03:59:15;14.30;42.30
64705;DHT22;51131;52.298;13.686;2022-12-16T04:01:42;14.90;43.30
64705;DHT22;51131;52.298;13.686;2022-12-16T04:04:09;14.90;43.30
64705;DHT22;51131;52.298;13.686;2022-12-16T04:06:36;15.60;43.40
64705;DHT22;51131;52.298;13.686;2022-12-16T04:09:02;14.60;42.20
64705;DHT22;51131;52.298;13.686;2022-12-16T04:11:29;14.90;42.90
64705;DHT22;51131;52.298;13.686;2022-12-16T04:14:14;14.90;43.50
64705;DHT22;51131;52.298;13.686;2022-12-16T04:17:00;14.90;43.30
64705;DHT22;51131;52.298;13.686;2022-12-16T04:19:45;15.50;43.50
64705;DHT22;51131;52.298;13.686;2022-12-16T04:22:32;14.90;42.60
64705;DHT22;51131;52.298;13.686;2022-12-16T04:25:30;15.30;43.90
64705;DHT22;51131;52.298;13.686;2022-12-16T04:27:57;14.80;43.10
64705;DHT22;51131;52.298;13.686;2022-12-16T04:30:24;14.80;44.40
64705;DHT22;51131;52.298;13.686;2022-12-16T04:32:52;14.90;42.40
64705;DHT22;51131;52.298;13.686;2022-12-16T04:35:37;14.80;43.30
64705;DHT22;51131;52.298;13.686;2022-12-16T04:38:22;14.90;43.10
64705;DHT22;51131;52.298;13.686;2022-12-16T04:41:08;14.80;43.20
64705;DHT22;51131;52.298;13.686;2022-12-16T04:43:54;14.90;42.90
64705;DHT22;51131;52.298;13.686;2022-12-16T04:46:40;14.80;41.90
64705;DHT22;51131;52.298;13.686;2022-12-16T04:49:25;14.80;42.10
64705;DHT22;51131;52.298;13.686;2022-12-16T04:52:11;14.80;43.50
64705;DHT22;51131;52.298;13.686;2022-12-16T04:54:56;14.80;44.40
64705;DHT22;51131;52.298;13.686;2022-12-16T04:57:43;14.80;43.00
64705;DHT22;51131;52.298;13.686;2022-12-16T05:00:29;15.00;42.80
64705;DHT22;51131;52.298;13.686;2022-12-16T05:03:14;14.60;42.40
64705;DHT22;51131;52.298;13.686;2022-12-16T05:06:00;14.80;42.30
64705;DHT22;51131;52.298;13.686;2022-12-16T05:08:45;14.80;42.20
64705;DHT22;51131;52.298;13.686;2022-12-16T05:11:30;14.80;41.70
64705;DHT22;51131;52.298;13.686;2022-12-16T05:14:15;14.90;41.40
64705;DHT22;51131;52.298;13.686;2022-12-16T05:17:01;15.50;41.40
64705;DHT22;51131;52.298;13.686;2022-12-16T05:19:46;14.80;42.30
64705;DHT22;51131;52.298;13.686;2022-12-16T05:22:31;15.50;42.20
64705;DHT22;51131;52.298;13.686;2022-12-16T05:25:16;15.20;41.30
64705;DHT22;51131;52.298;13.686;2022-12-16T05:28:01;14.80;40.10
64705;DHT22;51131;52.298;13.686;2022-12-16T05:33:13;14.80;41.30
64705;DHT22;51131;52.298;13.686;2022-12-16T05:35:59;14.80;40.70
64705;DHT22;51131;52.298;13.686;2022-12-16T05:38:45;14.80;39.70
64705;DHT22;51131;52.298;13.686;2022-12-16T05:41:30;14.80;42.10
64705;DHT22;51131;52.298;13.686;2022-12-16T05:44:15;14.80;42.00
64705;DHT22;51131;52.298;13.686;2022-12-16T05:47:00;14.70;41.00
64705;DHT22;51131;52.298;13.686;2022-12-16T05:49:46;14.80;39.80
64705;DHT22;51131;52.298;13.686;2022-12-16T05:52:31;14.70;41.00
64705;DHT22;51131;52.298;13.686;2022-12-16T05:55:16;14.80;41.60
64705;DHT22;51131;52.298;13.686;2022-12-16T05:58:02;14.80;40.80
64705;DHT22;51131;52.298;13.686;2022-12-16T06:00:46;14.90;40.30
64705;DHT22;51131;52.298;13.686;2022-12-16T06:03:32;14.70;40.80
64705;DHT22;51131;52.298;13.686;2022-12-16T06:06:17;15.00;41.60
64705;DHT22;51131;52.298;13.686;2022-12-16T06:09:02;15.00;41.70
64705;DHT22;51131;52.298;13.686;2022-12-16T06:11:48;15.00;41.50
64705;DHT22;51131;52.298;13.686;2022-12-16T06:14:33;14.90;41.20
64705;DHT22;51131;52.298;13.686;2022-12-16T06:20:23;15.00;40.30
64705;DHT22;51131;52.298;13.686;2022-12-16T06:23:12;15.00;40.30
64705;DHT22;51131;52.298;13.686;2022-12-16T06:26:06;15.00;40.50
64705;DHT22;51131;52.298;13.686;2022-12-16T06:28:51;15.00;40.70
64705;DHT22;51131;52.298;13.686;2022-12-16T06:31:37;15.00;39.30
64705;DHT22;51131;52.298;13.686;2022-12-16T06:34:22;14.90;39.50
64705;DHT22;51131;52.298;13.686;2022-12-16T06:37:07;15.00;38.90
64705;DHT22;51131;52.298;13.686;2022-12-16T06:39:53;15.00;39.50
64705;DHT22;51131;52.298;13.686;2022-12-16T06:42:39;15.10;40.60
64705;DHT22;51131;52.298;13.686;2022-12-16T06:45:24;15.10;40.20
64705;DHT22;51131;52.298;13.686;2022-12-16T06:48:10;15.10;40.00
64705;DHT22;51131;52.298;13.686;2022-12-16T06:50:55;15.10;40.00
64705;DHT22;51131;52.298;13.686;2022-12-16T06:53:40;15.10;39.80
64705;DHT22;51131;52.298;13.686;2022-12-16T06:56:26;15.10;40.20
64705;DHT22;51131;52.298;13.686;2022-12-16T06:59:11;15.10;39.60
64705;DHT22;51131;52.298;13.686;2022-12-16T07:01:56;15.10;39.90
64705;DHT22;51131;52.298;13.686;2022-12-16T07:04:42;15.20;39.70
64705;DHT22;51131;52.298;13.686;2022-12-16T07:07:27;15.10;39.70
64705;DHT22;51131;52.298;13.686;2022-12-16T07:10:12;15.10;39.60
64705;DHT22;51131;52.298;13.686;2022-12-16T07:13:01;15.30;40.30
64705;DHT22;51131;52.298;13.686;2022-12-16T07:15:46;15.10;40.20
64705;DHT22;51131;52.298;13.686;2022-12-16T07:18:32;15.10;40.00
64705;DHT22;51131;52.298;13.686;2022-12-16T07:21:17;15.10;39.50
64705;DHT22;51131;52.298;13.686;2022-12-16T07:24:02;15.00;39.40
64705;DHT22;51131;52.298;13.686;2022-12-16T07:26:48;15.10;39.20
64705;DHT22;51131;52.298;13.686;2022-12-16T07:29:33;15.10;39.30
64705;DHT22;51131;52.298;13.686;2022-12-16T07:32:19;15.10;39.20
64705;DHT22;51131;52.298;13.686;2022-12-16T07:35:04;15.20;39.60
64705;DHT22;51131;52.298;13.686;2022-12-16T07:37:49;15.10;39.40
64705;DHT22;51131;52.298;13.686;2022-12-16T07:40:34;15.20;39.60
64705;DHT22;51131;52.298;13.686;2022-12-16T07:43:20;15.10;39.40
64705;DHT22;51131;52.298;13.686;2022-12-16T07:46:05;15.20;39.40
64705;DHT22;51131;52.298;13.686;2022-12-16T07:48:51;15.20;39.50
64705;DHT22;51131;52.298;13.686;2022-12-16T07:51:36;15.10;39.10
64705;DHT22;51131;52.298;13.686;2022-12-16T07:54:21;15.20;39.40
64705;DHT22;51131;52.298;13.686;2022-12-16T07:57:06;15.20;39.40
64705;DHT22;51131;52.298;13.686;2022-12-16T07:59:51;15.20;39.40
64705;DHT22;51131;52.298;13.686;2022-12-16T08:02:37;15.20;39.30
64705;DHT22;51131;52.298;13.686;2022-12-16T08:05:22;15.20;39.20
64705;DHT22;51131;52.298;13.686;2022-12-16T08:08:07;15.20;39.40
64705;DHT22;51131;52.298;13.686;2022-12-16T08:10:53;15.20;39.30
64705;DHT22;51131;52.298;13.686;2022-12-16T08:13:39;15.20;39.30
64705;DHT22;51131;52.298;13.686;2022-12-16T08:16:24;15.20;38.80
64705;DHT22;51131;52.298;13.686;2022-12-16T08:19:10;15.20;39.10
64705;DHT22;51131;52.298;13.686;2022-12-16T08:21:56;15.20;39.00
64705;DHT22;51131;52.298;13.686;2022-12-16T08:24:41;15.20;39.20
64705;DHT22;51131;52.298;13.686;2022-12-16T08:27:27;15.20;38.80
64705;DHT22;51131;52.298;13.686;2022-12-16T08:30:12;15.20;39.10
64705;DHT22;51131;52.298;13.686;2022-12-16T08:32:57;15.30;39.20
64705;DHT22;51131;52.298;13.686;2022-12-16T08:35:45;15.30;39.50
64705;DHT22;51131;52.298;13.686;2022-12-16T08:38:34;15.20;39.20
64705;DHT22;51131;52.298;13.686;2022-12-16T08:41:21;15.30;39.30
64705;DHT22;51131;52.298;13.686;2022-12-16T08:44:06;15.30;39.40
64705;DHT22;51131;52.298;13.686;2022-12-16T08:46:51;15.30;39.50
64705;DHT22;51131;52.298;13.686;2022-12-16T08:49:36;15.30;39.00
64705;DHT22;51131;52.298;13.686;2022-12-16T08:52:28;15.20;38.60
64705;DHT22;51131;52.298;13.686;2022-12-16T08:55:13;15.20;40.00
64705;DHT22;51131;52.298;13.686;2022-12-16T08:57:58;15.20;39.60
64705;DHT22;51131;52.298;13.686;2022-12-16T09:00:44;15.20;39.30
64705;DHT22;51131;52.298;13.686;2022-12-16T09:03:34;15.30;38.70
64705;DHT22;51131;52.298;13.686;2022-12-16T09:06:19;15.20;38.50
64705;DHT22;51131;52.298;13.686;2022-12-16T09:09:21;15.20;38.40
64705;DHT22;51131;52.298;13.686;2022-12-16T09:12:07;15.20;38.60
64705;DHT22;51131;52.298;13.686;2022-12-16T09:14:52;15.20;38.70
64705;DHT22;51131;52.298;13.686;2022-12-16T09:17:37;15.20;38.60
64705;DHT22;51131;52.298;13.686;2022-12-16T09:20:23;15.30;38.30
64705;DHT22;51131;52.298;13.686;2022-12-16T09:23:08;15.30;38.80
64705;DHT22;51131;52.298;13.686;2022-12-16T09:25:57;15.30;38.90
64705;DHT22;51131;52.298;13.686;2022-12-16T09:28:42;15.30;39.10
64705;DHT22;51131;52.298;13.686;2022-12-16T09:31:28;15.30;39.30
64705;DHT22;51131;52.298;13.686;2022-12-16T09:34:13;15.10;39.20
64705;DHT22;51131;52.298;13.686;2022-12-16T09:36:59;15.30;39.30
64705;DHT22;51131;52.298;13.686;2022-12-16T09:39:44;15.30;39.50
64705;DHT22;51131;52.298;13.686;2022-12-16T09:42:29;15.40;39.30
64705;DHT22;51131;52.298;13.686;2022-12-16T09:45:22;15.40;39.50
64705;DHT22;51131;52.298;13.686;2022-12-16T09:51:27;15.40;39.50
64705;DHT22;51131;52.298;13.686;2022-12-16T09:54:14;15.40;40.20
64705;DHT22;51131;52.298;13.686;2022-12-16T09:57:00;15.40;39.70
64705;DHT22;51131;52.298;13.686;2022-12-16T09:59:48;15.40;40.00
64705;DHT22;51131;52.298;13.686;2022-12-16T10:02:37;15.30;39.60
64705;DHT22;51131;52.298;13.686;2022-12-16T10:05:42;15.40;39.70
64705;DHT22;51131;52.298;13.686;2022-12-16T10:08:42;15.40;39.30
64705;DHT22;51131;52.298;13.686;2022-12-16T10:14:23;15.30;39.70
64705;DHT22;51131;52.298;13.686;2022-12-16T10:17:15;15.40;39.70
64705;DHT22;51131;52.298;13.686;2022-12-16T10:22:54;15.40;39.60
64705;DHT22;51131;52.298;13.686;2022-12-16T10:25:42;15.40;39.70
64705;DHT22;51131;52.298;13.686;2022-12-16T10:31:15;15.40;39.90
64705;DHT22;51131;52.298;13.686;2022-12-16T10:34:01;15.40;39.70
64705;DHT22;51131;52.298;13.686;2022-12-16T10:36:47;15.30;39.90
64705;DHT22;51131;52.298;13.686;2022-12-16T10:39:40;15.40;39.80
64705;DHT22;51131;52.298;13.686;2022-12-16T10:42:35;15.20;39.50
64705;DHT22;51131;52.298;13.686;2022-12-16T10:45:28;15.40;40.00
64705;DHT22;51131;52.298;13.686;2022-12-16T10:48:20;15.40;40.00
64705;DHT22;51131;52.298;13.686;2022-12-16T10:51:20;15.40;39.80
64705;DHT22;51131;52.298;13.686;2022-12-16T10:54:19;15.40;39.70
64705;DHT22;51131;52.298;13.686;2022-12-16T11:00:15;15.40;40.10
64705;DHT22;51131;52.298;13.686;2022-12-16T11:03:20;15.40;40.10
64705;DHT22;51131;52.298;13.686;2022-12-16T11:06:06;15.40;40.30
64705;DHT22;51131;52.298;13.686;2022-12-16T11:08:51;15.40;39.90
64705;DHT22;51131;52.298;13.686;2022-12-16T11:11:37;15.40;40.20
64705;DHT22;51131;52.298;13.686;2022-12-16T11:14:35;15.40;40.20
64705;DHT22;51131;52.298;13.686;2022-12-16T11:17:40;15.40;40.10
64705;DHT22;51131;52.298;13.686;2022-12-16T11:20:44;15.40;40.30
64705;DHT22;51131;52.298;13.686;2022-12-16T11:23:35;15.40;40.10
64705;DHT22;51131;52.298;13.686;2022-12-16T11:26:20;15.50;40.50
64705;DHT22;51131;52.298;13.686;2022-12-16T11:29:08;15.40;40.20
64705;DHT22;51131;52.298;13.686;2022-12-16T11:31:55;15.40;40.20
64705;DHT22;51131;52.298;13.686;2022-12-16T11:34:41;15.40;40.30
64705;DHT22;51131;52.298;13.686;2022-12-16T11:37:27;15.40;40.20
64705;DHT22;51131;52.298;13.686;2022-12-16T11:40:14;15.30;40.40
64705;DHT22;51131;52.298;13.686;2022-12-16T11:43:03;15.40;40.50
64705;DHT22;51131;52.298;13.686;2022-12-16T11:45:50;15.40;40.50
64705;DHT22;51131;52.298;13.686;2022-12-16T11:48:49;15.40;40.70
64705;DHT22;51131;52.298;13.686;2022-12-16T11:51:36;15.40;40.50
64705;DHT22;51131;52.298;13.686;2022-12-16T11:54:49;15.40;40.60
64705;DHT22;51131;52.298;13.686;2022-12-16T11:57:41;15.40;40.70
64705;DHT22;51131;52.298;13.686;2022-12-16T12:00:28;15.40;40.50
64705;DHT22;51131;52.298;13.686;2022-12-16T12:03:35;15.40;40.70
64705;DHT22;51131;52.298;13.686;2022-12-16T12:06:31;15.40;40.40
64705;DHT22;51131;52.298;13.686;2022-12-16T12:09:19;15.40;40.70
64705;DHT22;51131;52.298;13.686;2022-12-16T12:14:52;15.40;40.90
64705;DHT22;51131;52.298;13.686;2022-12-16T12:17:56;15.40;41.00
64705;DHT22;51131;52.298;13.686;2022-12-16T12:20:46;15.40;40.60
64705;DHT22;51131;52.298;13.686;2022-12-16T12:23:37;15.40;41.00
64705;DHT22;51131;52.298;13.686;2022-12-16T12:26:28;15.40;40.90
64705;DHT22;51131;52.298;13.686;2022-12-16T12:38:00;15.30;40.50
64705;DHT22;51131;52.298;13.686;2022-12-16T12:40:59;15.40;40.60
64705;DHT22;51131;52.298;13.686;2022-12-16T12:44:06;15.30;40.30
64705;DHT22;51131;52.298;13.686;2022-12-16T12:47:13;15.30;40.40
64705;DHT22;51131;52.298;13.686;2022-12-16T12:50:03;15.40;40.50
64705;DHT22;51131;52.298;13.686;2022-12-16T12:58:39;15.40;41.10
64705;DHT22;51131;52.298;13.686;2022-12-16T13:01:27;15.40;41.00
64705;DHT22;51131;52.298;13.686;2022-12-16T13:04:20;15.40;40.80
64705;DHT22;51131;52.298;13.686;2022-12-16T13:07:06;15.40;40.80
64705;DHT22;51131;52.298;13.686;2022-12-16T13:16:01;15.40;41.20
64705;DHT22;51131;52.298;13.686;2022-12-16T13:18:47;15.40;41.20
64705;DHT22;51131;52.298;13.686;2022-12-16T13:27:11;15.40;41.10
64705;DHT22;51131;52.298;13.686;2022-12-16T13:30:16;15.40;41.20
64705;DHT22;51131;52.298;13.686;2022-12-16T13:36:07;15.40;41.30
64705;DHT22;51131;52.298;13.686;2022-12-16T13:38:54;15.50;41.10
64705;DHT22;51131;52.298;13.686;2022-12-16T13:53:24;15.40;41.10
64705;DHT22;51131;52.298;13.686;2022-12-16T13:56:10;15.40;41.40
64705;DHT22;51131;52.298;13.686;2022-12-16T13:59:03;15.40;40.90
64705;DHT22;51131;52.298;13.686;2022-12-16T14:01:53;15.40;41.10
64705;DHT22;51131;52.298;13.686;2022-12-16T14:04:42;15.50;41.10
64705;DHT22;51131;52.298;13.686;2022-12-16T14:07:28;15.50;41.30
64705;DHT22;51131;52.298;13.686;2022-12-16T14:10:22;15.60;41.30
64705;DHT22;51131;52.298;13.686;2022-12-16T14:16:35;15.60;41.00
64705;DHT22;51131;52.298;13.686;2022-12-16T14:19:26;15.60;40.90
64705;DHT22;51131;52.298;13.686;2022-12-16T14:25:20;15.60;41.00
64705;DHT22;51131;52.298;13.686;2022-12-16T14:31:25;15.60;40.90
64705;DHT22;51131;52.298;13.686;2022-12-16T14:37:11;15.60;41.10
64705;DHT22;51131;52.298;13.686;2022-12-16T14:39:56;15.60;41.20
64705;DHT22;51131;52.298;13.686;2022-12-16T14:42:42;15.60;41.10
64705;DHT22;51131;52.298;13.686;2022-12-16T14:45:28;15.60;41.40
64705;DHT22;51131;52.298;13.686;2022-12-16T14:48:22;15.60;41.40
64705;DHT22;51131;52.298;13.686;2022-12-16T14:51:16;15.60;41.20
64705;DHT22;51131;52.298;13.686;2022-12-16T14:54:25;15.60;41.20
64705;DHT22;51131;52.298;13.686;2022-12-16T14:57:18;15.60;41.30
64705;DHT22;51131;52.298;13.686;2022-12-16T15:02:49;15.60;41.40
64705;DHT22;51131;52.298;13.686;2022-12-16T15:05:36;15.60;41.10
64705;DHT22;51131;52.298;13.686;2022-12-16T15:08:22;15.60;41.40
64705;DHT22;51131;52.298;13.686;2022-12-16T15:11:08;15.60;41.40
64705;DHT22;51131;52.298;13.686;2022-12-16T15:13:56;15.60;41.40
64705;DHT22;51131;52.298;13.686;2022-12-16T15:16:42;15.60;41.40
64705;DHT22;51131;52.298;13.686;2022-12-16T15:19:28;15.60;42.10
64705;DHT22;51131;52.298;13.686;2022-12-16T15:22:36;15.60;42.20
64705;DHT22;51131;52.298;13.686;2022-12-16T15:25:24;15.90;42.30
64705;DHT22;51131;52.298;13.686;2022-12-16T15:31:31;15.60;42.00
64705;DHT22;51131;52.298;13.686;2022-12-16T15:34:37;15.60;41.80
64705;DHT22;51131;52.298;13.686;2022-12-16T15:37:30;15.60;41.80
64705;DHT22;51131;52.298;13.686;2022-12-16T15:40:27;15.60;41.60
64705;DHT22;51131;52.298;13.686;2022-12-16T15:43:31;15.60;41.90
64705;DHT22;51131;52.298;13.686;2022-12-16T15:46:23;15.50;41.10
64705;DHT22;51131;52.298;13.686;2022-12-16T15:49:20;14.90;40.00
64705;DHT22;51131;52.298;13.686;2022-12-16T15:58:15;15.40;40.80
64705;DHT22;51131;52.298;13.686;2022-12-16T16:01:02;15.40;40.80
64705;DHT22;51131;52.298;13.686;2022-12-16T16:03:49;15.50;41.10
64705;DHT22;51131;52.298;13.686;2022-12-16T16:06:35;15.50;41.10
64705;DHT22;51131;52.298;13.686;2022-12-16T16:12:22;15.60;41.40
64705;DHT22;51131;52.298;13.686;2022-12-16T16:15:09;15.50;41.70
64705;DHT22;51131;52.298;13.686;2022-12-16T16:17:58;15.50;42.30
64705;DHT22;51131;52.298;13.686;2022-12-16T16:20:43;15.60;42.60
64705;DHT22;51131;52.298;13.686;2022-12-16T16:23:29;15.50;43.30
64705;DHT22;51131;52.298;13.686;2022-12-16T16:26:15;15.60;42.80
64705;DHT22;51131;52.298;13.686;2022-12-16T16:29:01;15.60;43.10
64705;DHT22;51131;52.298;13.686;2022-12-16T16:31:46;15.60;42.80
64705;DHT22;51131;52.298;13.686;2022-12-16T16:34:31;15.60;42.60
64705;DHT22;51131;52.298;13.686;2022-12-16T16:37:18;15.60;43.00
64705;DHT22;51131;52.298;13.686;2022-12-16T16:40:20;15.60;42.50
64705;DHT22;51131;52.298;13.686;2022-12-16T16:43:07;15.50;41.80
64705;DHT22;51131;52.298;13.686;2022-12-16T16:45:53;15.60;42.10
64705;DHT22;51131;52.298;13.686;2022-12-16T16:48:38;15.50;41.80
64705;DHT22;51131;52.298;13.686;2022-12-16T16:51:24;15.50;42.20
64705;DHT22;51131;52.298;13.686;2022-12-16T16:54:09;15.50;41.90
64705;DHT22;51131;52.298;13.686;2022-12-16T16:56:54;16.00;42.60
64705;DHT22;51131;52.298;13.686;2022-12-16T16:59:39;15.50;41.80
64705;DHT22;51131;52.298;13.686;2022-12-16T17:02:24;16.50;42.60
64705;DHT22;51131;52.298;13.686;2022-12-16T17:05:10;15.50;41.90
64705;DHT22;51131;52.298;13.686;2022-12-16T17:07:55;16.00;42.10
64705;DHT22;51131;52.298;13.686;2022-12-16T17:10:41;15.50;41.60
64705;DHT22;51131;52.298;13.686;2022-12-16T17:13:27;15.50;41.50
64705;DHT22;51131;52.298;13.686;2022-12-16T17:16:13;15.50;41.50
64705;DHT22;51131;52.298;13.686;2022-12-16T17:19:01;15.70;42.10
64705;DHT22;51131;52.298;13.686;2022-12-16T17:21:49;15.50;41.60
64705;DHT22;51131;52.298;13.686;2022-12-16T17:24:34;15.60;41.70
64705;DHT22;51131;52.298;13.686;2022-12-16T17:27:22;15.50;41.90
64705;DHT22;51131;52.298;13.686;2022-12-16T17:30:18;15.60;41.50
64705;DHT22;51131;52.298;13.686;2022-12-16T17:33:12;15.50;41.80
64705;DHT22;51131;52.298;13.686;2022-12-16T17:35:59;15.50;39.80
64705;DHT22;51131;52.298;13.686;2022-12-16T17:38:44;15.40;39.90
64705;DHT22;51131;52.298;13.686;2022-12-16T17:41:30;15.40;39.40
64705;DHT22;51131;52.298;13.686;2022-12-16T17:44:15;15.40;39.40
64705;DHT22;51131;52.298;13.686;2022-12-16T17:47:01;15.50;39.50
64705;DHT22;51131;52.298;13.686;2022-12-16T17:49:46;15.50;40.20
64705;DHT22;51131;52.298;13.686;2022-12-16T17:52:31;15.60;40.90
64705;DHT22;51131;52.298;13.686;2022-12-16T17:55:16;15.90;40.90
64705;DHT22;51131;52.298;13.686;2022-12-16T17:58:02;15.60;41.20
64705;DHT22;51131;52.298;13.686;2022-12-16T18:00:47;15.50;41.20
64705;DHT22;51131;52.298;13.686;2022-12-16T18:03:33;15.50;40.10
64705;DHT22;51131;52.298;13.686;2022-12-16T18:06:18;15.50;39.90
64705;DHT22;51131;52.298;13.686;2022-12-16T18:09:03;15.50;39.40
64705;DHT22;51131;52.298;13.686;2022-12-16T18:11:49;15.50;39.20
64705;DHT22;51131;52.298;13.686;2022-12-16T18:14:34;15.50;38.90
64705;DHT22;51131;52.298;13.686;2022-12-16T18:17:20;15.50;38.70
64705;DHT22;51131;52.298;13.686;2022-12-16T18:20:05;16.40;39.30
64705;DHT22;51131;52.298;13.686;2022-12-16T18:22:51;15.60;38.40
64705;DHT22;51131;52.298;13.686;2022-12-16T18:25:37;15.50;38.20
64705;DHT22;51131;52.298;13.686;2022-12-16T18:28:22;15.50;38.40
64705;DHT22;51131;52.298;13.686;2022-12-16T18:31:07;15.50;38.90
64705;DHT22;51131;52.298;13.686;2022-12-16T18:33:52;15.60;39.10
64705;DHT22;51131;52.298;13.686;2022-12-16T18:36:38;15.60;39.40
64705;DHT22;51131;52.298;13.686;2022-12-16T18:39:23;15.60;39.70
64705;DHT22;51131;52.298;13.686;2022-12-16T18:42:08;15.60;39.80
64705;DHT22;51131;52.298;13.686;2022-12-16T18:44:54;15.60;39.40
64705;DHT22;51131;52.298;13.686;2022-12-16T18:47:39;15.70;39.70
64705;DHT22;51131;52.298;13.686;2022-12-16T18:50:37;15.70;39.70
64705;DHT22;51131;52.298;13.686;2022-12-16T18:53:23;15.70;40.00